createdAt,value
2022-12-23T00:00:37.999Z,64.78
2022-12-23T00:03:04.904Z,64.95
2022-12-23T00:05:37.551Z,67.13
2022-12-23T00:08:05.010Z,62.60
2022-12-23T00:10:31.764Z,64.10
2022-12-23T00:13:17.296Z,67.30
2022-12-23T00:15:44.098Z,70.18
2022-12-23T00:18:10.736Z,73.10
2022-12-23T00:20:37.390Z,74.53
2022-12-23T00:23:07.134Z,72.13
2022-12-23T00:25:41.018Z,74.35
2022-12-23T00:28:11.535Z,77.70
2022-12-23T00:30:48.557Z,76.90
2022-12-23T00:33:16.107Z,74.70
2022-12-23T00:35:43.847Z,77.22
2022-12-23T00:38:10.589Z,78.45
2022-12-23T00:40:55.856Z,77.72
2022-12-23T00:43:22.605Z,71.57
2022-12-23T00:45:49.464Z,68.70
2022-12-23T00:48:35.007Z,65.35
2022-12-23T00:51:02.292Z,61.80
2022-12-23T00:53:29.183Z,63.92
2022-12-23T00:55:55.891Z,62.92
2022-12-23T00:58:22.545Z,62.08
2022-12-23T01:01:07.831Z,61.53
2022-12-23T01:03:53.276Z,60.42
2022-12-23T01:06:20.376Z,57.22
2022-12-23T01:08:47.389Z,61.92
2022-12-23T01:11:14.046Z,64.70
2022-12-23T01:13:40.672Z,63.13
2022-12-23T01:16:14.974Z,61.65
2022-12-23T01:18:43.765Z,62.97
2022-12-23T01:21:10.799Z,62.30
2022-12-23T01:26:18.141Z,64.10
2022-12-23T01:28:44.901Z,60.78
2022-12-23T01:31:11.800Z,63.35
2022-12-23T01:33:39.413Z,65.00
2022-12-23T01:36:07.330Z,63.35
2022-12-23T01:38:34.479Z,62.55
2022-12-23T01:41:01.164Z,64.88
2022-12-23T01:43:46.484Z,59.67
2022-12-23T01:46:14.960Z,61.40
2022-12-23T01:48:44.408Z,61.97
2022-12-23T01:51:14.255Z,60.63
2022-12-23T01:53:43.638Z,67.20
2022-12-23T01:56:13.334Z,65.50
2022-12-23T01:58:42.599Z,65.53
2022-12-23T02:01:28.750Z,61.95
2022-12-23T02:04:00.759Z,58.30
2022-12-23T02:06:46.306Z,61.05
2022-12-23T02:09:19.061Z,61.40
2022-12-23T02:11:56.613Z,69.82
2022-12-23T02:14:41.904Z,65.07
2022-12-23T02:17:24.727Z,65.55
2022-12-23T02:20:09.978Z,62.42
2022-12-23T02:22:42.702Z,64.30
2022-12-23T02:25:19.703Z,67.90
2022-12-23T02:27:46.557Z,66.90
2022-12-23T02:30:19.246Z,66.30
2022-12-23T02:32:46.016Z,67.18
2022-12-23T02:35:25.035Z,67.68
2022-12-23T02:38:21.484Z,67.10
2022-12-23T02:41:00.508Z,66.72
2022-12-23T02:43:39.513Z,66.85
2022-12-23T02:46:13.344Z,63.63
2022-12-23T02:48:49.689Z,66.72
2022-12-23T02:51:17.034Z,66.05
2022-12-23T02:53:49.225Z,68.53
2022-12-23T02:56:17.706Z,69.45
2022-12-23T02:58:47.537Z,69.72
2022-12-23T03:01:16.090Z,69.93
2022-12-23T03:03:44.699Z,71.68
2022-12-23T03:06:34.439Z,70.72
2022-12-23T03:09:01.258Z,67.88
2022-12-23T03:11:40.295Z,67.72
2022-12-23T03:14:16.254Z,70.00
2022-12-23T03:17:01.610Z,69.53
2022-12-23T03:19:32.019Z,67.35
2022-12-23T03:22:25.119Z,69.35
2022-12-23T03:24:58.983Z,66.30
2022-12-23T03:29:52.756Z,66.28
2022-12-23T03:32:19.900Z,66.95
2022-12-23T03:34:48.258Z,68.85
2022-12-23T03:37:16.433Z,70.97
2022-12-23T03:39:48.241Z,73.50
2022-12-23T03:42:24.007Z,75.07
2022-12-23T03:45:19.221Z,74.00
2022-12-23T03:47:47.031Z,80.05
2022-12-23T03:50:16.952Z,83.07
2022-12-23T03:52:51.689Z,80.40
2022-12-23T03:55:22.047Z,77.68
2022-12-23T03:58:01.196Z,75.50
2022-12-23T04:00:28.931Z,73.63
2022-12-23T04:03:05.495Z,72.97
2022-12-23T04:05:32.204Z,72.35
2022-12-23T04:08:05.244Z,72.78
2022-12-23T04:10:31.959Z,71.03
2022-12-23T04:12:58.962Z,70.68
2022-12-23T04:15:27.180Z,68.55
2022-12-23T04:17:54.883Z,66.55
2022-12-23T04:20:21.641Z,66.15
2022-12-23T04:22:48.788Z,71.80
2022-12-23T04:25:16.274Z,69.50
2022-12-23T04:27:43.771Z,70.93
2022-12-23T04:30:11.475Z,74.43
2022-12-23T04:32:38.531Z,76.28
2022-12-23T04:35:05.611Z,74.70
2022-12-23T04:37:32.311Z,74.57
2022-12-23T04:39:59.026Z,71.85
2022-12-23T04:42:26.206Z,73.55
2022-12-23T04:44:52.917Z,71.85
2022-12-23T04:47:19.797Z,74.88
2022-12-23T04:49:47.014Z,71.60
2022-12-23T04:52:14.024Z,71.95
2022-12-23T04:54:46.048Z,70.75
2022-12-23T04:57:13.432Z,70.65
2022-12-23T04:59:40.462Z,71.82
2022-12-23T05:02:08.133Z,72.57
2022-12-23T05:04:35.067Z,75.15
2022-12-23T05:07:01.978Z,76.85
2022-12-23T05:09:28.735Z,75.47
2022-12-23T05:11:57.833Z,75.18
2022-12-23T05:14:24.714Z,76.47
2022-12-23T05:16:51.717Z,74.50
2022-12-23T05:19:18.452Z,74.82
2022-12-23T05:21:45.342Z,76.00
2022-12-23T05:24:12.148Z,74.65
2022-12-23T05:26:38.849Z,73.60
2022-12-23T05:29:06.241Z,73.15
2022-12-23T05:31:33.730Z,72.95
2022-12-23T05:34:06.057Z,71.97
2022-12-23T05:36:33.221Z,72.88
2022-12-23T05:39:00.004Z,75.18
2022-12-23T05:41:26.707Z,75.93
2022-12-23T05:43:53.514Z,76.65
2022-12-23T05:46:26.198Z,75.90
2022-12-23T05:48:53.644Z,73.80
2022-12-23T05:51:20.781Z,74.05
2022-12-23T05:53:47.598Z,75.32
2022-12-23T05:56:14.256Z,72.45
2022-12-23T05:58:41.329Z,71.15
2022-12-23T06:01:08.669Z,76.45
2022-12-23T06:03:35.449Z,72.22
2022-12-23T06:06:02.297Z,71.55
2022-12-23T06:08:29.071Z,71.63
2022-12-23T06:10:55.847Z,72.72
2022-12-23T06:13:22.944Z,70.35
2022-12-23T06:15:50.280Z,70.45
2022-12-23T06:18:17.169Z,70.55
2022-12-23T06:20:47.674Z,66.50
2022-12-23T06:23:14.560Z,71.00
2022-12-23T06:25:41.287Z,68.63
2022-12-23T06:28:08.198Z,65.95
2022-12-23T06:30:35.082Z,70.47
2022-12-23T06:33:01.887Z,68.55
2022-12-23T06:35:28.713Z,69.35
2022-12-23T06:37:55.464Z,69.97
2022-12-23T06:40:22.216Z,70.13
2022-12-23T06:42:49.291Z,74.35
2022-12-23T06:45:16.601Z,76.75
2022-12-23T06:47:43.546Z,71.78
2022-12-23T06:50:11.128Z,70.35
2022-12-23T06:52:38.710Z,72.13
2022-12-23T06:55:06.036Z,69.25
2022-12-23T06:57:33.384Z,71.35
2022-12-23T07:00:00.983Z,67.90
2022-12-23T07:02:27.975Z,70.03
2022-12-23T07:04:54.915Z,67.30
2022-12-23T07:07:21.745Z,68.82
2022-12-23T07:09:48.535Z,65.07
2022-12-23T07:12:15.395Z,64.88
2022-12-23T07:14:42.345Z,66.07
2022-12-23T07:17:09.060Z,64.80
2022-12-23T07:19:36.113Z,64.82
2022-12-23T07:22:03.326Z,63.13
2022-12-23T07:24:30.591Z,63.70
2022-12-23T07:26:57.687Z,62.85
2022-12-23T07:29:24.604Z,62.15
2022-12-23T07:31:51.462Z,62.00
2022-12-23T07:34:18.172Z,63.63
2022-12-23T07:36:44.902Z,61.42
2022-12-23T07:39:11.808Z,63.20
2022-12-23T07:41:39.165Z,61.92
2022-12-23T07:44:07.474Z,60.15
2022-12-23T07:46:35.072Z,61.95
2022-12-23T07:49:02.100Z,59.45
2022-12-23T07:51:29.025Z,58.40
2022-12-23T07:53:56.207Z,59.85
2022-12-23T07:56:23.587Z,62.10
2022-12-23T07:58:51.753Z,59.92
2022-12-23T08:01:19.213Z,60.60
2022-12-23T08:03:46.368Z,60.17
2022-12-23T08:06:13.958Z,61.53
2022-12-23T08:08:41.998Z,64.47
2022-12-23T08:11:09.655Z,67.57
2022-12-23T08:13:37.436Z,73.05
2022-12-23T08:16:05.000Z,73.70
2022-12-23T08:18:33.147Z,72.70
2022-12-23T08:21:04.530Z,75.43
2022-12-23T08:23:32.352Z,71.68
2022-12-23T08:26:03.578Z,71.40
2022-12-23T08:28:30.680Z,71.63
2022-12-23T08:31:03.924Z,73.13
2022-12-23T08:33:30.679Z,70.93
2022-12-23T08:35:57.319Z,70.70
2022-12-23T08:38:24.286Z,71.97
2022-12-23T08:40:52.094Z,77.75
2022-12-23T08:43:19.907Z,72.60
2022-12-23T08:45:47.650Z,68.57
2022-12-23T08:48:14.848Z,66.28
2022-12-23T08:50:43.339Z,66.93
2022-12-23T08:53:10.996Z,63.35
2022-12-23T08:55:41.934Z,65.22
2022-12-23T08:58:09.732Z,63.38
2022-12-23T09:00:37.252Z,64.30
2022-12-23T09:03:04.215Z,64.35
2022-12-23T09:05:31.621Z,65.40
2022-12-23T09:07:58.582Z,61.13
2022-12-23T09:10:25.578Z,64.10
2022-12-23T09:12:52.423Z,72.00
2022-12-23T09:15:19.338Z,66.35
2022-12-23T09:17:46.133Z,65.40
2022-12-23T09:20:13.654Z,64.28
2022-12-23T09:22:42.187Z,66.45
2022-12-23T09:25:11.033Z,66.45
2022-12-23T09:27:38.031Z,70.13
2022-12-23T09:30:04.975Z,66.55
2022-12-23T09:32:31.833Z,82.63
2022-12-23T09:34:58.584Z,73.97
2022-12-23T09:37:25.455Z,67.63
2022-12-23T09:39:52.315Z,64.32
2022-12-23T09:42:28.447Z,67.15
2022-12-23T09:45:10.517Z,63.08
2022-12-23T09:47:37.869Z,63.72
2022-12-23T09:50:10.919Z,64.05
2022-12-23T09:52:43.040Z,62.17
2022-12-23T09:55:11.237Z,62.88
2022-12-23T09:57:42.027Z,63.50
2022-12-23T10:00:15.872Z,61.95
2022-12-23T10:05:32.381Z,61.78
2022-12-23T10:08:02.108Z,63.17
2022-12-23T10:10:52.845Z,60.90
2022-12-23T10:13:25.679Z,67.38
2022-12-23T10:15:53.552Z,64.18
2022-12-23T10:18:25.852Z,64.35
2022-12-23T10:21:01.645Z,66.50
2022-12-23T10:23:32.991Z,70.57
2022-12-23T10:26:00.700Z,74.80
2022-12-23T10:28:29.741Z,73.93
2022-12-23T10:31:39.224Z,75.18
2022-12-23T10:34:00.512Z,71.60
2022-12-23T10:36:39.646Z,76.15
2022-12-23T10:39:14.891Z,76.22
2022-12-23T10:42:00.307Z,78.07
2022-12-23T10:44:33.830Z,73.15
2022-12-23T10:47:09.508Z,80.65
2022-12-23T10:49:36.279Z,74.03
2022-12-23T10:52:10.984Z,75.15
2022-12-23T10:54:46.408Z,74.90
2022-12-23T10:57:15.441Z,78.28
2022-12-23T10:59:42.879Z,77.43
2022-12-23T11:02:13.146Z,73.65
2022-12-23T11:04:41.639Z,72.15
2022-12-23T11:07:42.901Z,71.80
2022-12-23T11:10:01.978Z,72.20
2022-12-23T11:12:42.853Z,71.93
2022-12-23T11:15:28.169Z,73.07
2022-12-23T11:18:16.783Z,73.07
2022-12-23T11:20:45.058Z,73.47
2022-12-23T11:23:28.925Z,72.68
2022-12-23T11:26:00.655Z,74.15
2022-12-23T11:28:27.995Z,72.82
2022-12-23T11:31:09.558Z,71.60
2022-12-23T11:33:38.725Z,72.18
2022-12-23T11:36:05.838Z,79.28
2022-12-23T11:38:33.696Z,71.68
2022-12-23T11:41:00.611Z,71.20
2022-12-23T11:43:28.067Z,70.15
2022-12-23T11:46:19.159Z,69.35
2022-12-23T11:48:51.336Z,67.50
2022-12-23T11:51:25.278Z,70.32
2022-12-23T11:53:58.936Z,69.50
2022-12-23T11:59:05.756Z,69.50
2022-12-23T12:01:32.603Z,67.22
2022-12-23T12:03:59.402Z,68.68
2022-12-23T12:06:26.588Z,68.75
2022-12-23T12:08:55.542Z,70.32
2022-12-23T12:11:26.203Z,69.55
2022-12-23T12:14:13.085Z,66.05
2022-12-23T12:17:00.829Z,66.85
2022-12-23T12:19:33.577Z,68.50
2022-12-23T12:22:03.416Z,67.82
2022-12-23T12:24:33.256Z,65.32
2022-12-23T12:27:05.092Z,69.07
2022-12-23T12:29:58.450Z,66.95
2022-12-23T12:34:59.927Z,68.18
2022-12-23T12:37:31.518Z,68.25
2022-12-23T12:40:05.017Z,69.80
2022-12-23T12:42:42.182Z,68.93
2022-12-23T12:45:22.313Z,64.88
2022-12-23T12:48:12.811Z,65.10
2022-12-23T12:50:48.507Z,66.40
2022-12-23T12:53:18.851Z,67.22
2022-12-23T12:55:49.093Z,67.47
2022-12-23T12:58:19.241Z,66.07
2022-12-23T13:01:04.840Z,68.13
2022-12-23T13:03:49.651Z,67.97
2022-12-23T13:06:22.456Z,70.45
2022-12-23T13:08:55.192Z,70.20
2022-12-23T13:11:28.393Z,68.10
2022-12-23T13:13:55.734Z,65.70
2022-12-23T13:16:22.797Z,70.53
2022-12-23T13:19:10.604Z,69.35
2022-12-23T13:21:41.770Z,67.70
2022-12-23T13:24:11.442Z,67.85
2022-12-23T13:27:01.181Z,68.55
2022-12-23T13:29:40.270Z,68.63
2022-12-23T13:32:19.038Z,67.10
2022-12-23T13:34:51.881Z,66.68
2022-12-23T13:37:42.145Z,69.07
2022-12-23T13:40:29.616Z,68.03
2022-12-23T13:42:59.904Z,67.75
2022-12-23T13:45:29.792Z,68.50
2022-12-23T13:48:10.762Z,68.05
2022-12-23T13:50:43.530Z,68.28
2022-12-23T13:53:37.514Z,68.20
2022-12-23T13:56:22.688Z,68.30
2022-12-23T13:58:50.544Z,68.20
2022-12-23T14:01:17.830Z,66.15
2022-12-23T14:03:46.172Z,66.78
2022-12-23T14:06:18.702Z,63.45
2022-12-23T14:08:47.557Z,65.20
2022-12-23T14:11:18.722Z,60.50
2022-12-23T14:13:52.029Z,62.55
2022-12-23T14:16:18.861Z,62.50
2022-12-23T14:19:01.111Z,62.83
2022-12-23T14:21:38.949Z,59.72
2022-12-23T14:24:24.297Z,60.92
2022-12-23T14:26:50.891Z,61.22
2022-12-23T14:29:43.829Z,62.78
2022-12-23T14:32:22.062Z,60.03
2022-12-23T14:35:18.170Z,60.75
2022-12-23T14:38:04.745Z,61.42
2022-12-23T14:40:37.613Z,62.65
2022-12-23T14:43:23.077Z,63.33
2022-12-23T14:45:51.137Z,63.30
2022-12-23T14:48:37.119Z,65.97
2022-12-23T14:51:04.400Z,72.68
2022-12-23T14:53:32.219Z,64.15
2022-12-23T14:56:08.012Z,64.28
2022-12-23T14:59:07.475Z,64.40
2022-12-23T15:01:41.731Z,63.90
2022-12-23T15:04:14.124Z,60.08
2022-12-23T15:06:43.104Z,61.75
2022-12-23T15:09:18.427Z,61.00
2022-12-23T15:11:45.410Z,61.63
2022-12-23T15:14:18.610Z,63.88
2022-12-23T15:16:46.594Z,64.38
2022-12-23T15:19:24.935Z,62.63
2022-12-23T15:21:59.646Z,62.05
2022-12-23T15:24:29.969Z,59.38
2022-12-23T15:27:25.112Z,60.47
2022-12-23T15:29:45.232Z,62.50
2022-12-23T15:32:12.022Z,61.78
2022-12-23T15:34:38.772Z,63.00
2022-12-23T15:37:10.249Z,67.22
2022-12-23T15:39:39.357Z,69.03
2022-12-23T15:42:19.954Z,71.28
2022-12-23T15:44:46.700Z,68.63
2022-12-23T15:47:23.122Z,69.28
2022-12-23T15:49:49.829Z,70.63
2022-12-23T15:52:20.437Z,72.22
2022-12-23T15:54:58.888Z,78.47
2022-12-23T15:57:27.687Z,77.47
2022-12-23T15:59:55.175Z,79.28
2022-12-23T16:02:59.777Z,74.95
2022-12-23T16:05:28.624Z,77.80
2022-12-23T16:08:13.977Z,75.57
2022-12-23T16:10:41.265Z,77.20
2022-12-23T16:13:19.171Z,80.80
2022-12-23T16:15:46.317Z,79.05
2022-12-23T16:18:13.466Z,79.78
2022-12-23T16:20:42.252Z,80.60
2022-12-23T16:23:10.779Z,79.43
2022-12-23T16:25:37.725Z,78.25
2022-12-23T16:28:11.463Z,77.30
2022-12-23T16:30:39.333Z,79.70
2022-12-23T16:33:07.244Z,81.18
2022-12-23T16:35:41.783Z,81.70
2022-12-23T16:38:16.535Z,84.05
2022-12-23T16:40:44.527Z,86.90
2022-12-23T16:43:11.699Z,92.38
2022-12-23T16:45:38.772Z,91.80
2022-12-23T16:48:09.426Z,93.13
2022-12-23T16:50:36.457Z,93.45
2022-12-23T16:53:04.021Z,92.20
2022-12-23T16:55:30.728Z,90.95
2022-12-23T16:57:57.381Z,93.38
2022-12-23T17:00:24.061Z,100.57
2022-12-23T17:02:50.834Z,93.97
2022-12-23T17:05:19.027Z,95.78
2022-12-23T17:07:46.259Z,91.10
2022-12-23T17:10:14.593Z,92.97
2022-12-23T17:12:42.267Z,90.40
2022-12-23T17:15:15.547Z,89.75
2022-12-23T17:17:42.192Z,89.53
2022-12-23T17:20:10.219Z,89.15
2022-12-23T17:22:37.931Z,90.47
2022-12-23T17:25:05.089Z,88.70
2022-12-23T17:27:31.848Z,87.57
2022-12-23T17:29:58.647Z,88.63
2022-12-23T17:32:28.238Z,91.07
2022-12-23T17:34:55.130Z,88.72
2022-12-23T17:37:22.772Z,85.72
2022-12-23T17:39:49.365Z,85.45
2022-12-23T17:42:23.277Z,84.30
2022-12-23T17:44:51.796Z,85.47
2022-12-23T17:47:20.171Z,82.63
2022-12-23T17:49:47.453Z,80.88
2022-12-23T17:52:21.281Z,82.68
2022-12-23T17:54:49.061Z,84.95
2022-12-23T17:57:26.103Z,82.07
2022-12-23T17:59:53.487Z,84.25
2022-12-23T18:02:23.405Z,82.47
2022-12-23T18:04:50.739Z,86.75
2022-12-23T18:07:17.639Z,85.40
2022-12-23T18:09:44.335Z,83.95
2022-12-23T18:12:34.024Z,82.38
2022-12-23T18:15:01.720Z,83.72
2022-12-23T18:17:28.581Z,80.25
2022-12-23T18:19:56.077Z,81.20
2022-12-23T18:22:24.331Z,85.55
2022-12-23T18:24:56.991Z,82.00
2022-12-23T18:27:25.636Z,80.95
2022-12-23T18:29:52.409Z,82.03
2022-12-23T18:32:20.923Z,81.93
2022-12-23T18:34:48.131Z,83.47
2022-12-23T18:37:15.017Z,84.85
2022-12-23T18:39:41.782Z,85.00
2022-12-23T18:42:11.232Z,89.50
2022-12-23T18:44:37.859Z,87.22
2022-12-23T18:47:04.953Z,86.05
2022-12-23T18:49:33.899Z,86.20
2022-12-23T18:52:04.922Z,86.20
2022-12-23T18:54:31.679Z,90.32
2022-12-23T18:56:59.810Z,92.82
2022-12-23T18:59:30.149Z,97.88
2022-12-23T19:01:57.545Z,92.80
2022-12-23T19:04:24.417Z,88.13
2022-12-23T19:06:51.195Z,87.60
2022-12-23T19:09:19.427Z,84.50
2022-12-23T19:11:47.095Z,85.93
2022-12-23T19:14:13.939Z,85.47
2022-12-23T19:16:43.658Z,87.30
2022-12-23T19:19:14.281Z,82.32
2022-12-23T19:21:40.932Z,84.15
2022-12-23T19:24:07.614Z,81.65
2022-12-23T19:26:36.417Z,82.10
2022-12-23T19:29:06.159Z,83.78
2022-12-23T19:31:34.004Z,83.97
2022-12-23T19:34:01.130Z,91.63
2022-12-23T19:36:28.040Z,95.18
2022-12-23T19:38:55.728Z,93.07
2022-12-23T19:41:22.496Z,93.78
2022-12-23T19:43:49.372Z,94.38
2022-12-23T19:46:16.911Z,101.00
2022-12-23T19:48:43.972Z,95.78
2022-12-23T19:51:12.175Z,94.25
2022-12-23T19:53:39.559Z,90.80
2022-12-23T19:56:13.326Z,88.00
2022-12-23T19:58:41.462Z,88.65
2022-12-23T20:01:09.885Z,86.32
2022-12-23T20:03:37.087Z,90.70
2022-12-23T20:06:05.375Z,90.03
2022-12-23T20:08:32.440Z,85.68
2022-12-23T20:11:06.939Z,92.25
2022-12-23T20:13:34.402Z,92.57
2022-12-23T20:16:01.543Z,89.38
2022-12-23T20:18:28.227Z,90.30
2022-12-23T20:20:54.983Z,89.68
2022-12-23T20:23:22.713Z,88.40
2022-12-23T20:25:50.010Z,89.60
2022-12-23T20:28:16.801Z,86.43
2022-12-23T20:30:43.589Z,88.03
2022-12-23T20:33:10.367Z,92.32
2022-12-23T20:35:37.308Z,93.30
2022-12-23T20:38:04.152Z,91.55
2022-12-23T20:40:30.898Z,85.15
2022-12-23T20:42:58.318Z,87.82
2022-12-23T20:45:27.815Z,86.95
2022-12-23T20:47:54.513Z,87.85
2022-12-23T20:50:21.428Z,86.25
2022-12-23T20:52:48.214Z,87.15
2022-12-23T20:55:15.144Z,87.65
2022-12-23T20:57:44.069Z,87.85
2022-12-23T21:00:11.726Z,89.85
2022-12-23T21:02:38.915Z,93.15
2022-12-23T21:05:05.658Z,90.13
2022-12-23T21:07:32.434Z,90.47
2022-12-23T21:09:59.124Z,89.43
2022-12-23T21:12:28.195Z,88.65
2022-12-23T21:14:55.036Z,87.88
2022-12-23T21:17:23.711Z,87.38
2022-12-23T21:19:50.403Z,88.75
2022-12-23T21:22:17.220Z,90.35
2022-12-23T21:24:43.899Z,91.22
2022-12-23T21:27:10.584Z,89.70
2022-12-23T21:29:37.225Z,91.78
2022-12-23T21:32:04.070Z,93.88
2022-12-23T21:34:30.786Z,90.30
2022-12-23T21:36:57.631Z,94.20
2022-12-23T21:39:24.260Z,89.55
2022-12-23T21:41:51.555Z,87.70
2022-12-23T21:44:18.490Z,87.28
2022-12-23T21:46:45.279Z,88.53
2022-12-23T21:49:13.006Z,90.57
2022-12-23T21:51:41.277Z,95.38
2022-12-23T21:54:11.633Z,97.45
2022-12-23T21:56:38.699Z,93.97
2022-12-23T21:59:07.393Z,95.13
2022-12-23T22:01:34.752Z,97.40
2022-12-23T22:04:01.701Z,95.88
2022-12-23T22:06:29.917Z,98.75
2022-12-23T22:08:57.340Z,95.07
2022-12-23T22:11:25.665Z,92.82
2022-12-23T22:13:52.771Z,94.60
2022-12-23T22:16:20.874Z,96.93
2022-12-23T22:18:48.246Z,96.00
2022-12-23T22:21:16.630Z,90.07
2022-12-23T22:23:44.076Z,88.07
2022-12-23T22:26:12.467Z,93.00
2022-12-23T22:28:39.607Z,94.30
2022-12-23T22:31:20.674Z,100.53
2022-12-23T22:33:47.369Z,101.38
2022-12-23T22:36:14.920Z,102.32
2022-12-23T22:38:41.757Z,101.68
2022-12-23T22:41:09.012Z,94.70
2022-12-23T22:43:36.281Z,97.60
2022-12-23T22:46:03.579Z,100.57
2022-12-23T22:48:30.885Z,98.63
2022-12-23T22:51:05.040Z,97.53
2022-12-23T22:53:32.297Z,94.63
2022-12-23T22:56:00.109Z,93.07
2022-12-23T22:58:28.034Z,91.03
2022-12-23T23:00:55.003Z,92.47
2022-12-23T23:03:21.775Z,94.18
2022-12-23T23:06:02.830Z,88.95
2022-12-23T23:08:30.518Z,88.82
2022-12-23T23:10:58.124Z,106.10
2022-12-23T23:13:26.592Z,100.18
2022-12-23T23:15:53.418Z,94.55
2022-12-23T23:18:20.184Z,89.18
2022-12-23T23:20:47.027Z,90.95
2022-12-23T23:23:14.087Z,91.40
2022-12-23T23:25:41.461Z,94.38
2022-12-23T23:28:08.372Z,90.65
2022-12-23T23:30:36.330Z,88.57
2022-12-23T23:33:03.202Z,86.45
2022-12-23T23:35:29.866Z,85.57
2022-12-23T23:37:56.554Z,86.10
2022-12-23T23:40:23.299Z,87.20
2022-12-23T23:42:50.005Z,85.82
2022-12-23T23:45:16.711Z,85.82
2022-12-23T23:47:43.397Z,84.78
2022-12-23T23:50:10.249Z,85.13
2022-12-23T23:52:36.974Z,87.07
2022-12-23T23:55:04.485Z,84.90
2022-12-23T23:57:31.338Z,89.57
2022-12-23T23:59:58.143Z,91.95
